sensor_id;sensor_type;location;lat;lon;timestamp;temperature;humidity
26182;DHT22;13927;51.534;11.866;2023-09-19T00:00:37;18.20;99.90
26182;DHT22;13927;51.534;11.866;2023-09-19T00:03:03;18.20;99.90
26182;DHT22;13927;51.534;11.866;2023-09-19T00:05:33;18.10;99.90
26182;DHT22;13927;51.534;11.866;2023-09-19T00:08:00;18.00;99.90
26182;DHT22;13927;51.534;11.866;2023-09-19T00:10:30;18.00;99.90
26182;DHT22;13927;51.534;11.866;2023-09-19T00:13:00;18.00;99.90
26182;DHT22;13927;51.534;11.866;2023-09-19T00:15:31;17.90;99.90
26182;DHT22;13927;51.534;11.866;2023-09-19T00:18:03;17.90;99.90
26182;DHT22;13927;51.534;11.866;2023-09-19T00:20:32;17.90;99.90
26182;DHT22;13927;51.534;11.866;2023-09-19T00:23:00;17.90;99.90
26182;DHT22;13927;51.534;11.866;2023-09-19T00:25:28;17.90;99.90
26182;DHT22;13927;51.534;11.866;2023-09-19T00:27:54;18.00;99.90
26182;DHT22;13927;51.534;11.866;2023-09-19T00:30:20;18.00;99.90
26182;DHT22;13927;51.534;11.866;2023-09-19T00:32:50;18.00;99.90
26182;DHT22;13927;51.534;11.866;2023-09-19T00:35:20;18.00;99.90
26182;DHT22;13927;51.534;11.866;2023-09-19T00:37:49;18.00;99.90
26182;DHT22;13927;51.534;11.866;2023-09-19T00:40:16;18.00;99.90
26182;DHT22;13927;51.534;11.866;2023-09-19T00:42:46;17.90;99.90
26182;DHT22;13927;51.534;11.866;2023-09-19T00:45:13;17.90;99.90
26182;DHT22;13927;51.534;11.866;2023-09-19T00:47:44;17.80;99.90
26182;DHT22;13927;51.534;11.866;2023-09-19T00:50:18;17.90;99.90
26182;DHT22;13927;51.534;11.866;2023-09-19T00:52:46;17.70;99.90
26182;DHT22;13927;51.534;11.866;2023-09-19T00:55:15;17.60;99.90
26182;DHT22;13927;51.534;11.866;2023-09-19T00:57:44;17.70;99.90
26182;DHT22;13927;51.534;11.866;2023-09-19T01:00:10;17.60;99.90
26182;DHT22;13927;51.534;11.866;2023-09-19T01:02:41;17.70;99.90
26182;DHT22;13927;51.534;11.866;2023-09-19T01:05:11;17.80;99.90
26182;DHT22;13927;51.534;11.866;2023-09-19T01:07:38;17.80;99.90
26182;DHT22;13927;51.534;11.866;2023-09-19T01:10:12;17.80;99.90
26182;DHT22;13927;51.534;11.866;2023-09-19T01:27:15;17.80;99.90
26182;DHT22;13927;51.534;11.866;2023-09-19T01:30:09;17.70;99.90
26182;DHT22;13927;51.534;11.866;2023-09-19T01:32:37;17.70;99.90
26182;DHT22;13927;51.534;11.866;2023-09-19T01:35:04;17.70;99.90
26182;DHT22;13927;51.534;11.866;2023-09-19T01:37:31;17.70;99.90
26182;DHT22;13927;51.534;11.866;2023-09-19T01:40:00;17.80;99.90
26182;DHT22;13927;51.534;11.866;2023-09-19T01:46:16;17.80;99.90
26182;DHT22;13927;51.534;11.866;2023-09-19T01:51:48;17.80;99.90
26182;DHT22;13927;51.534;11.866;2023-09-19T01:54:26;17.80;99.90
26182;DHT22;13927;51.534;11.866;2023-09-19T02:00:05;17.80;99.90
26182;DHT22;13927;51.534;11.866;2023-09-19T02:02:37;17.70;99.90
26182;DHT22;13927;51.534;11.866;2023-09-19T02:05:05;17.70;99.90
26182;DHT22;13927;51.534;11.866;2023-09-19T02:07:32;17.70;99.90
26182;DHT22;13927;51.534;11.866;2023-09-19T02:09:58;17.60;99.90
26182;DHT22;13927;51.534;11.866;2023-09-19T02:12:26;17.70;99.90
26182;DHT22;13927;51.534;11.866;2023-09-19T02:14:52;17.60;99.90
26182;DHT22;13927;51.534;11.866;2023-09-19T02:17:17;17.60;99.90
26182;DHT22;13927;51.534;11.866;2023-09-19T02:19:43;17.50;99.90
26182;DHT22;13927;51.534;11.866;2023-09-19T02:22:09;17.50;99.90
26182;DHT22;13927;51.534;11.866;2023-09-19T02:24:36;17.50;99.90
26182;DHT22;13927;51.534;11.866;2023-09-19T02:27:04;17.50;99.90
26182;DHT22;13927;51.534;11.866;2023-09-19T02:29:30;17.40;99.90
26182;DHT22;13927;51.534;11.866;2023-09-19T02:31:57;17.40;99.90
26182;DHT22;13927;51.534;11.866;2023-09-19T02:34:23;17.40;99.90
26182;DHT22;13927;51.534;11.866;2023-09-19T02:36:49;17.30;99.90
26182;DHT22;13927;51.534;11.866;2023-09-19T02:39:14;17.40;99.90
26182;DHT22;13927;51.534;11.866;2023-09-19T02:41:40;17.40;99.90
26182;DHT22;13927;51.534;11.866;2023-09-19T02:44:07;17.40;99.90
26182;DHT22;13927;51.534;11.866;2023-09-19T02:46:34;17.50;99.90
26182;DHT22;13927;51.534;11.866;2023-09-19T02:49:02;17.50;99.90
26182;DHT22;13927;51.534;11.866;2023-09-19T02:51:32;17.50;99.90
26182;DHT22;13927;51.534;11.866;2023-09-19T02:53:59;17.50;99.90
26182;DHT22;13927;51.534;11.866;2023-09-19T02:56:25;17.50;99.90
26182;DHT22;13927;51.534;11.866;2023-09-19T02:58:51;17.50;99.90
26182;DHT22;13927;51.534;11.866;2023-09-19T03:01:17;17.50;99.90
26182;DHT22;13927;51.534;11.866;2023-09-19T03:03:44;17.50;99.90
26182;DHT22;13927;51.534;11.866;2023-09-19T03:06:10;17.50;99.90
26182;DHT22;13927;51.534;11.866;2023-09-19T03:08:38;17.40;99.90
26182;DHT22;13927;51.534;11.866;2023-09-19T03:11:05;17.50;99.90
26182;DHT22;13927;51.534;11.866;2023-09-19T03:13:32;17.40;99.90
26182;DHT22;13927;51.534;11.866;2023-09-19T03:15:58;17.40;99.90
26182;DHT22;13927;51.534;11.866;2023-09-19T03:18:27;17.50;99.90
26182;DHT22;13927;51.534;11.866;2023-09-19T03:20:54;17.50;99.90
26182;DHT22;13927;51.534;11.866;2023-09-19T03:23:20;17.50;99.90
26182;DHT22;13927;51.534;11.866;2023-09-19T03:25:46;17.50;99.90
26182;DHT22;13927;51.534;11.866;2023-09-19T03:28:13;17.50;99.90
26182;DHT22;13927;51.534;11.866;2023-09-19T03:30:41;17.50;99.90
26182;DHT22;13927;51.534;11.866;2023-09-19T03:33:07;17.50;99.90
26182;DHT22;13927;51.534;11.866;2023-09-19T03:35:33;17.50;99.90
26182;DHT22;13927;51.534;11.866;2023-09-19T03:38:00;17.40;99.90
26182;DHT22;13927;51.534;11.866;2023-09-19T03:40:26;17.40;99.90
26182;DHT22;13927;51.534;11.866;2023-09-19T03:42:52;17.40;99.90
26182;DHT22;13927;51.534;11.866;2023-09-19T03:45:17;17.40;99.90
26182;DHT22;13927;51.534;11.866;2023-09-19T03:47:43;17.30;99.90
26182;DHT22;13927;51.534;11.866;2023-09-19T03:50:12;17.40;99.90
26182;DHT22;13927;51.534;11.866;2023-09-19T03:52:45;17.30;99.90
26182;DHT22;13927;51.534;11.866;2023-09-19T03:55:11;17.30;99.90
26182;DHT22;13927;51.534;11.866;2023-09-19T03:57:37;17.30;99.90
26182;DHT22;13927;51.534;11.866;2023-09-19T04:00:04;17.30;99.90
26182;DHT22;13927;51.534;11.866;2023-09-19T04:02:31;17.30;99.90
26182;DHT22;13927;51.534;11.866;2023-09-19T04:04:58;17.20;99.90
26182;DHT22;13927;51.534;11.866;2023-09-19T04:07:24;17.20;99.90
26182;DHT22;13927;51.534;11.866;2023-09-19T04:09:54;17.20;99.90
26182;DHT22;13927;51.534;11.866;2023-09-19T04:12:20;17.10;99.90
26182;DHT22;13927;51.534;11.866;2023-09-19T04:14:46;17.10;99.90
26182;DHT22;13927;51.534;11.866;2023-09-19T04:17:12;17.00;99.90
26182;DHT22;13927;51.534;11.866;2023-09-19T04:19:38;17.00;99.90
26182;DHT22;13927;51.534;11.866;2023-09-19T04:22:04;16.90;99.90
26182;DHT22;13927;51.534;11.866;2023-09-19T04:24:29;17.00;99.90
26182;DHT22;13927;51.534;11.866;2023-09-19T04:26:56;16.90;99.90
26182;DHT22;13927;51.534;11.866;2023-09-19T04:29:22;16.90;99.90
26182;DHT22;13927;51.534;11.866;2023-09-19T04:31:48;16.90;99.90
26182;DHT22;13927;51.534;11.866;2023-09-19T04:34:14;16.90;99.90
26182;DHT22;13927;51.534;11.866;2023-09-19T04:36:42;16.90;99.90
26182;DHT22;13927;51.534;11.866;2023-09-19T04:39:09;16.90;99.90
26182;DHT22;13927;51.534;11.866;2023-09-19T04:41:36;16.90;99.90
26182;DHT22;13927;51.534;11.866;2023-09-19T04:44:07;16.90;99.90
26182;DHT22;13927;51.534;11.866;2023-09-19T04:46:33;16.90;99.90
26182;DHT22;13927;51.534;11.866;2023-09-19T04:49:02;16.90;99.90
26182;DHT22;13927;51.534;11.866;2023-09-19T04:51:28;16.90;99.90
26182;DHT22;13927;51.534;11.866;2023-09-19T04:53:58;16.90;99.90
26182;DHT22;13927;51.534;11.866;2023-09-19T04:56:24;16.80;99.90
26182;DHT22;13927;51.534;11.866;2023-09-19T04:58:49;16.70;99.90
26182;DHT22;13927;51.534;11.866;2023-09-19T05:01:15;16.60;99.90
26182;DHT22;13927;51.534;11.866;2023-09-19T05:03:41;16.50;99.90
26182;DHT22;13927;51.534;11.866;2023-09-19T05:06:10;16.40;99.90
26182;DHT22;13927;51.534;11.866;2023-09-19T05:08:36;16.30;99.90
26182;DHT22;13927;51.534;11.866;2023-09-19T05:11:02;16.30;99.90
26182;DHT22;13927;51.534;11.866;2023-09-19T05:13:27;16.20;99.90
26182;DHT22;13927;51.534;11.866;2023-09-19T05:15:53;16.20;99.90
26182;DHT22;13927;51.534;11.866;2023-09-19T05:18:19;16.30;99.90
26182;DHT22;13927;51.534;11.866;2023-09-19T05:20:45;16.30;99.90
26182;DHT22;13927;51.534;11.866;2023-09-19T05:23:11;16.30;99.90
26182;DHT22;13927;51.534;11.866;2023-09-19T05:25:40;16.30;99.90
26182;DHT22;13927;51.534;11.866;2023-09-19T05:28:07;16.30;99.90
26182;DHT22;13927;51.534;11.866;2023-09-19T05:30:34;16.40;99.90
26182;DHT22;13927;51.534;11.866;2023-09-19T05:33:02;16.40;99.90
26182;DHT22;13927;51.534;11.866;2023-09-19T05:35:29;16.60;99.90
26182;DHT22;13927;51.534;11.866;2023-09-19T05:37:56;16.60;99.90
26182;DHT22;13927;51.534;11.866;2023-09-19T05:40:24;16.60;99.90
26182;DHT22;13927;51.534;11.866;2023-09-19T05:42:51;16.70;99.90
26182;DHT22;13927;51.534;11.866;2023-09-19T05:45:17;16.80;99.90
26182;DHT22;13927;51.534;11.866;2023-09-19T05:47:53;16.90;99.90
26182;DHT22;13927;51.534;11.866;2023-09-19T05:50:26;17.10;99.90
26182;DHT22;13927;51.534;11.866;2023-09-19T05:52:53;17.20;99.90
26182;DHT22;13927;51.534;11.866;2023-09-19T05:55:21;17.30;99.90
26182;DHT22;13927;51.534;11.866;2023-09-19T05:57:51;17.50;99.90
26182;DHT22;13927;51.534;11.866;2023-09-19T06:00:19;17.60;99.90
26182;DHT22;13927;51.534;11.866;2023-09-19T06:02:51;17.80;99.90
26182;DHT22;13927;51.534;11.866;2023-09-19T06:05:19;17.80;99.90
26182;DHT22;13927;51.534;11.866;2023-09-19T06:07:45;17.90;99.90
26182;DHT22;13927;51.534;11.866;2023-09-19T06:10:12;17.90;99.90
26182;DHT22;13927;51.534;11.866;2023-09-19T06:12:47;17.80;99.90
26182;DHT22;13927;51.534;11.866;2023-09-19T06:15:15;18.20;99.90
26182;DHT22;13927;51.534;11.866;2023-09-19T06:17:48;18.30;99.90
26182;DHT22;13927;51.534;11.866;2023-09-19T06:20:16;18.40;99.90
26182;DHT22;13927;51.534;11.866;2023-09-19T06:22:44;18.50;99.90
26182;DHT22;13927;51.534;11.866;2023-09-19T06:25:12;18.60;99.90
26182;DHT22;13927;51.534;11.866;2023-09-19T06:27:53;18.70;99.90
26182;DHT22;13927;51.534;11.866;2023-09-19T06:30:21;18.80;99.90
26182;DHT22;13927;51.534;11.866;2023-09-19T06:32:59;19.00;99.90
26182;DHT22;13927;51.534;11.866;2023-09-19T06:35:26;19.00;99.90
26182;DHT22;13927;51.534;11.866;2023-09-19T06:37:54;19.00;99.90
26182;DHT22;13927;51.534;11.866;2023-09-19T06:40:23;19.00;99.90
26182;DHT22;13927;51.534;11.866;2023-09-19T06:42:53;19.10;99.90
26182;DHT22;13927;51.534;11.866;2023-09-19T06:45:19;19.10;99.90
26182;DHT22;13927;51.534;11.866;2023-09-19T06:47:50;19.00;99.90
26182;DHT22;13927;51.534;11.866;2023-09-19T06:50:21;18.90;99.90
26182;DHT22;13927;51.534;11.866;2023-09-19T06:52:54;18.80;99.90
26182;DHT22;13927;51.534;11.866;2023-09-19T06:55:23;18.60;99.90
26182;DHT22;13927;51.534;11.866;2023-09-19T06:57:54;18.60;99.90
26182;DHT22;13927;51.534;11.866;2023-09-19T07:00:20;18.60;99.90
26182;DHT22;13927;51.534;11.866;2023-09-19T07:03:00;18.60;99.90
26182;DHT22;13927;51.534;11.866;2023-09-19T07:05:32;18.50;99.90
26182;DHT22;13927;51.534;11.866;2023-09-19T07:07:59;18.40;99.90
26182;DHT22;13927;51.534;11.866;2023-09-19T07:10:26;18.40;99.90
26182;DHT22;13927;51.534;11.866;2023-09-19T07:12:57;18.30;99.90
26182;DHT22;13927;51.534;11.866;2023-09-19T07:15:28;18.30;99.90
26182;DHT22;13927;51.534;11.866;2023-09-19T07:18:07;18.30;99.90
26182;DHT22;13927;51.534;11.866;2023-09-19T07:20:36;18.30;99.90
26182;DHT22;13927;51.534;11.866;2023-09-19T07:23:04;18.30;99.90
26182;DHT22;13927;51.534;11.866;2023-09-19T07:25:30;18.30;99.90
26182;DHT22;13927;51.534;11.866;2023-09-19T07:27:57;18.30;99.90
26182;DHT22;13927;51.534;11.866;2023-09-19T07:30:27;18.30;99.90
26182;DHT22;13927;51.534;11.866;2023-09-19T07:32:54;18.40;99.90
26182;DHT22;13927;51.534;11.866;2023-09-19T07:35:20;18.60;99.90
26182;DHT22;13927;51.534;11.866;2023-09-19T07:37:47;18.60;99.90
26182;DHT22;13927;51.534;11.866;2023-09-19T07:40:15;18.50;99.90
26182;DHT22;13927;51.534;11.866;2023-09-19T07:42:41;18.40;99.90
26182;DHT22;13927;51.534;11.866;2023-09-19T07:45:10;18.50;99.90
26182;DHT22;13927;51.534;11.866;2023-09-19T07:47:50;18.60;99.90
26182;DHT22;13927;51.534;11.866;2023-09-19T07:50:18;18.50;99.90
26182;DHT22;13927;51.534;11.866;2023-09-19T07:52:46;18.50;99.90
26182;DHT22;13927;51.534;11.866;2023-09-19T07:55:13;18.50;99.90
26182;DHT22;13927;51.534;11.866;2023-09-19T07:57:46;18.60;99.90
26182;DHT22;13927;51.534;11.866;2023-09-19T08:00:13;18.60;99.90
26182;DHT22;13927;51.534;11.866;2023-09-19T08:02:41;18.70;99.90
26182;DHT22;13927;51.534;11.866;2023-09-19T08:05:09;18.60;99.90
26182;DHT22;13927;51.534;11.866;2023-09-19T08:07:37;18.60;99.90
26182;DHT22;13927;51.534;11.866;2023-09-19T08:10:08;18.80;99.90
26182;DHT22;13927;51.534;11.866;2023-09-19T08:12:39;18.80;99.90
26182;DHT22;13927;51.534;11.866;2023-09-19T08:15:13;18.90;99.90
26182;DHT22;13927;51.534;11.866;2023-09-19T08:17:40;19.00;99.90
26182;DHT22;13927;51.534;11.866;2023-09-19T08:20:08;19.10;99.90
26182;DHT22;13927;51.534;11.866;2023-09-19T08:22:52;19.20;99.90
26182;DHT22;13927;51.534;11.866;2023-09-19T08:25:22;19.30;99.90
26182;DHT22;13927;51.534;11.866;2023-09-19T08:27:52;19.50;99.90
26182;DHT22;13927;51.534;11.866;2023-09-19T08:30:20;19.50;99.90
26182;DHT22;13927;51.534;11.866;2023-09-19T08:32:57;19.50;99.90
26182;DHT22;13927;51.534;11.866;2023-09-19T08:35:24;19.60;99.90
26182;DHT22;13927;51.534;11.866;2023-09-19T08:37:51;19.60;99.90
26182;DHT22;13927;51.534;11.866;2023-09-19T08:40:17;19.60;99.90
26182;DHT22;13927;51.534;11.866;2023-09-19T08:42:50;19.60;99.90
26182;DHT22;13927;51.534;11.866;2023-09-19T08:45:21;19.50;99.90
26182;DHT22;13927;51.534;11.866;2023-09-19T08:48:11;19.40;99.90
26182;DHT22;13927;51.534;11.866;2023-09-19T08:51:12;19.40;99.90
26182;DHT22;13927;51.534;11.866;2023-09-19T08:54:03;19.30;99.90
26182;DHT22;13927;51.534;11.866;2023-09-19T08:56:33;19.40;99.90
26182;DHT22;13927;51.534;11.866;2023-09-19T08:59:03;19.40;99.90
26182;DHT22;13927;51.534;11.866;2023-09-19T09:01:38;19.30;99.90
26182;DHT22;13927;51.534;11.866;2023-09-19T09:04:09;19.30;99.90
26182;DHT22;13927;51.534;11.866;2023-09-19T09:06:39;19.30;99.90
26182;DHT22;13927;51.534;11.866;2023-09-19T09:09:06;19.40;99.90
26182;DHT22;13927;51.534;11.866;2023-09-19T09:11:36;19.30;99.90
26182;DHT22;13927;51.534;11.866;2023-09-19T09:14:06;19.40;99.90
26182;DHT22;13927;51.534;11.866;2023-09-19T09:16:33;19.40;99.90
26182;DHT22;13927;51.534;11.866;2023-09-19T09:19:00;19.40;99.90
26182;DHT22;13927;51.534;11.866;2023-09-19T09:21:27;19.60;99.90
26182;DHT22;13927;51.534;11.866;2023-09-19T09:23:54;19.80;99.90
26182;DHT22;13927;51.534;11.866;2023-09-19T09:26:43;20.00;99.90
26182;DHT22;13927;51.534;11.866;2023-09-19T09:29:10;20.10;99.90
26182;DHT22;13927;51.534;11.866;2023-09-19T09:31:36;20.20;99.90
26182;DHT22;13927;51.534;11.866;2023-09-19T09:34:03;20.30;99.90
26182;DHT22;13927;51.534;11.866;2023-09-19T09:36:40;20.40;99.90
26182;DHT22;13927;51.534;11.866;2023-09-19T09:39:09;20.40;99.90
26182;DHT22;13927;51.534;11.866;2023-09-19T09:41:43;20.50;99.90
26182;DHT22;13927;51.534;11.866;2023-09-19T09:44:15;20.50;99.90
26182;DHT22;13927;51.534;11.866;2023-09-19T09:46:48;20.50;99.90
26182;DHT22;13927;51.534;11.866;2023-09-19T09:49:24;20.30;99.90
26182;DHT22;13927;51.534;11.866;2023-09-19T09:52:06;20.20;99.90
26182;DHT22;13927;51.534;11.866;2023-09-19T09:54:34;20.10;99.90
26182;DHT22;13927;51.534;11.866;2023-09-19T09:57:05;20.10;99.90
26182;DHT22;13927;51.534;11.866;2023-09-19T09:59:48;20.10;99.90
26182;DHT22;13927;51.534;11.866;2023-09-19T10:02:20;20.20;99.90
26182;DHT22;13927;51.534;11.866;2023-09-19T10:04:55;20.40;99.90
26182;DHT22;13927;51.534;11.866;2023-09-19T10:07:33;20.30;99.90
26182;DHT22;13927;51.534;11.866;2023-09-19T10:10:28;20.50;99.90
26182;DHT22;13927;51.534;11.866;2023-09-19T10:13:21;20.90;99.90
26182;DHT22;13927;51.534;11.866;2023-09-19T10:15:51;21.10;99.90
26182;DHT22;13927;51.534;11.866;2023-09-19T10:18:25;21.10;99.90
26182;DHT22;13927;51.534;11.866;2023-09-19T10:20:53;21.00;99.90
26182;DHT22;13927;51.534;11.866;2023-09-19T10:23:21;21.00;99.90
26182;DHT22;13927;51.534;11.866;2023-09-19T10:25:50;21.00;99.90
26182;DHT22;13927;51.534;11.866;2023-09-19T10:28:20;21.00;99.90
26182;DHT22;13927;51.534;11.866;2023-09-19T10:30:52;21.10;99.90
26182;DHT22;13927;51.534;11.866;2023-09-19T10:33:23;21.20;99.90
26182;DHT22;13927;51.534;11.866;2023-09-19T10:35:58;21.20;99.90
26182;DHT22;13927;51.534;11.866;2023-09-19T10:38:27;21.10;99.90
26182;DHT22;13927;51.534;11.866;2023-09-19T10:40:56;21.00;99.90
26182;DHT22;13927;51.534;11.866;2023-09-19T10:43:30;20.90;99.90
26182;DHT22;13927;51.534;11.866;2023-09-19T10:46:02;21.10;99.90
26182;DHT22;13927;51.534;11.866;2023-09-19T10:48:34;21.20;99.90
26182;DHT22;13927;51.534;11.866;2023-09-19T10:54:05;21.50;99.90
26182;DHT22;13927;51.534;11.866;2023-09-19T10:56:44;21.40;99.90
26182;DHT22;13927;51.534;11.866;2023-09-19T10:59:16;21.50;99.90
26182;DHT22;13927;51.534;11.866;2023-09-19T11:01:47;21.50;99.90
26182;DHT22;13927;51.534;11.866;2023-09-19T11:04:32;21.50;99.90
26182;DHT22;13927;51.534;11.866;2023-09-19T11:07:09;21.50;99.90
26182;DHT22;13927;51.534;11.866;2023-09-19T11:09:54;21.80;99.90
26182;DHT22;13927;51.534;11.866;2023-09-19T11:16:04;21.50;99.90
26182;DHT22;13927;51.534;11.866;2023-09-19T11:26:51;21.50;99.90
26182;DHT22;13927;51.534;11.866;2023-09-19T11:29:28;21.70;99.90
26182;DHT22;13927;51.534;11.866;2023-09-19T11:32:00;22.00;99.90
26182;DHT22;13927;51.534;11.866;2023-09-19T11:34:44;22.20;99.90
26182;DHT22;13927;51.534;11.866;2023-09-19T11:40:09;22.40;99.90
26182;DHT22;13927;51.534;11.866;2023-09-19T11:42:47;22.10;99.90
26182;DHT22;13927;51.534;11.866;2023-09-19T11:48:14;22.00;99.90
26182;DHT22;13927;51.534;11.866;2023-09-19T11:50:43;22.10;99.90
26182;DHT22;13927;51.534;11.866;2023-09-19T11:53:13;22.20;99.90
26182;DHT22;13927;51.534;11.866;2023-09-19T11:55:42;22.30;99.90
26182;DHT22;13927;51.534;11.866;2023-09-19T11:58:09;22.40;99.90
26182;DHT22;13927;51.534;11.866;2023-09-19T12:00:38;22.40;99.90
26182;DHT22;13927;51.534;11.866;2023-09-19T12:03:11;22.30;99.90
26182;DHT22;13927;51.534;11.866;2023-09-19T12:05:39;22.20;99.90
26182;DHT22;13927;51.534;11.866;2023-09-19T12:08:07;22.10;99.90
26182;DHT22;13927;51.534;11.866;2023-09-19T12:10:45;22.00;99.90
26182;DHT22;13927;51.534;11.866;2023-09-19T12:13:19;22.00;99.90
26182;DHT22;13927;51.534;11.866;2023-09-19T12:15:46;22.10;99.90
26182;DHT22;13927;51.534;11.866;2023-09-19T12:18:31;21.90;99.90
26182;DHT22;13927;51.534;11.866;2023-09-19T12:20:59;22.00;99.90
26182;DHT22;13927;51.534;11.866;2023-09-19T12:23:30;22.00;99.90
26182;DHT22;13927;51.534;11.866;2023-09-19T12:25:58;22.20;99.90
26182;DHT22;13927;51.534;11.866;2023-09-19T12:28:27;22.10;99.90
26182;DHT22;13927;51.534;11.866;2023-09-19T12:31:06;22.20;99.90
26182;DHT22;13927;51.534;11.866;2023-09-19T12:33:34;22.30;99.90
26182;DHT22;13927;51.534;11.866;2023-09-19T12:36:20;22.30;99.90
26182;DHT22;13927;51.534;11.866;2023-09-19T12:38:55;22.10;99.90
26182;DHT22;13927;51.534;11.866;2023-09-19T12:41:22;21.90;99.90
26182;DHT22;13927;51.534;11.866;2023-09-19T12:43:49;22.00;99.90
26182;DHT22;13927;51.534;11.866;2023-09-19T12:46:22;21.80;99.90
26182;DHT22;13927;51.534;11.866;2023-09-19T12:49:17;21.80;99.90
26182;DHT22;13927;51.534;11.866;2023-09-19T12:51:48;21.90;99.90
26182;DHT22;13927;51.534;11.866;2023-09-19T12:54:16;22.00;99.90
26182;DHT22;13927;51.534;11.866;2023-09-19T12:56:46;22.20;99.90
26182;DHT22;13927;51.534;11.866;2023-09-19T12:59:15;22.40;99.90
26182;DHT22;13927;51.534;11.866;2023-09-19T13:01:43;22.60;99.90
26182;DHT22;13927;51.534;11.866;2023-09-19T13:04:19;22.50;99.90
26182;DHT22;13927;51.534;11.866;2023-09-19T13:06:52;22.80;99.90
26182;DHT22;13927;51.534;11.866;2023-09-19T13:09:22;22.90;99.90
26182;DHT22;13927;51.534;11.866;2023-09-19T13:12:00;22.90;99.90
26182;DHT22;13927;51.534;11.866;2023-09-19T13:14:29;22.80;99.90
26182;DHT22;13927;51.534;11.866;2023-09-19T13:17:09;22.50;99.90
26182;DHT22;13927;51.534;11.866;2023-09-19T13:19:43;22.40;99.90
26182;DHT22;13927;51.534;11.866;2023-09-19T13:22:39;22.60;99.90
26182;DHT22;13927;51.534;11.866;2023-09-19T13:25:15;22.60;99.90
26182;DHT22;13927;51.534;11.866;2023-09-19T13:27:53;22.50;99.90
26182;DHT22;13927;51.534;11.866;2023-09-19T13:30:23;22.50;99.90
26182;DHT22;13927;51.534;11.866;2023-09-19T13:32:51;22.50;99.90
26182;DHT22;13927;51.534;11.866;2023-09-19T13:35:19;22.50;99.90
26182;DHT22;13927;51.534;11.866;2023-09-19T13:37:48;22.70;99.90
26182;DHT22;13927;51.534;11.866;2023-09-19T13:40:17;22.60;99.90
26182;DHT22;13927;51.534;11.866;2023-09-19T13:42:44;22.80;99.90
26182;DHT22;13927;51.534;11.866;2023-09-19T13:45:11;22.90;99.90
26182;DHT22;13927;51.534;11.866;2023-09-19T13:47:39;22.80;99.90
26182;DHT22;13927;51.534;11.866;2023-09-19T13:50:07;22.70;99.90
26182;DHT22;13927;51.534;11.866;2023-09-19T13:52:33;22.90;99.90
26182;DHT22;13927;51.534;11.866;2023-09-19T13:55:00;23.10;99.90
26182;DHT22;13927;51.534;11.866;2023-09-19T13:57:27;23.10;99.90
26182;DHT22;13927;51.534;11.866;2023-09-19T13:59:55;22.90;99.90
26182;DHT22;13927;51.534;11.866;2023-09-19T14:02:23;22.70;99.90
26182;DHT22;13927;51.534;11.866;2023-09-19T14:04:50;22.70;99.90
26182;DHT22;13927;51.534;11.866;2023-09-19T14:07:17;22.70;99.90
26182;DHT22;13927;51.534;11.866;2023-09-19T14:09:46;22.70;99.90
26182;DHT22;13927;51.534;11.866;2023-09-19T14:12:13;22.70;99.90
26182;DHT22;13927;51.534;11.866;2023-09-19T14:14:39;22.70;99.90
26182;DHT22;13927;51.534;11.866;2023-09-19T14:17:06;22.90;99.90
26182;DHT22;13927;51.534;11.866;2023-09-19T14:19:33;22.80;99.90
26182;DHT22;13927;51.534;11.866;2023-09-19T14:22:00;22.70;99.90
26182;DHT22;13927;51.534;11.866;2023-09-19T14:24:33;22.70;99.90
26182;DHT22;13927;51.534;11.866;2023-09-19T14:27:00;22.70;99.90
26182;DHT22;13927;51.534;11.866;2023-09-19T14:29:26;22.40;99.90
26182;DHT22;13927;51.534;11.866;2023-09-19T14:31:52;22.40;99.90
26182;DHT22;13927;51.534;11.866;2023-09-19T14:34:23;22.50;99.90
26182;DHT22;13927;51.534;11.866;2023-09-19T14:36:49;22.40;99.90
26182;DHT22;13927;51.534;11.866;2023-09-19T14:39:16;22.30;99.90
26182;DHT22;13927;51.534;11.866;2023-09-19T14:41:42;22.20;99.90
26182;DHT22;13927;51.534;11.866;2023-09-19T14:44:08;22.20;99.90
26182;DHT22;13927;51.534;11.866;2023-09-19T14:46:36;22.00;99.90
26182;DHT22;13927;51.534;11.866;2023-09-19T14:49:03;22.10;99.90
26182;DHT22;13927;51.534;11.866;2023-09-19T14:51:30;22.00;99.90
26182;DHT22;13927;51.534;11.866;2023-09-19T14:53:57;22.00;99.90
26182;DHT22;13927;51.534;11.866;2023-09-19T14:56:24;22.10;99.90
26182;DHT22;13927;51.534;11.866;2023-09-19T14:58:51;21.90;99.90
26182;DHT22;13927;51.534;11.866;2023-09-19T15:01:18;21.90;99.90
26182;DHT22;13927;51.534;11.866;2023-09-19T15:03:44;21.90;99.90
26182;DHT22;13927;51.534;11.866;2023-09-19T15:06:13;21.90;99.90
26182;DHT22;13927;51.534;11.866;2023-09-19T15:08:40;21.80;99.90
26182;DHT22;13927;51.534;11.866;2023-09-19T15:11:08;21.70;99.90
26182;DHT22;13927;51.534;11.866;2023-09-19T15:13:36;21.70;99.90
26182;DHT22;13927;51.534;11.866;2023-09-19T15:16:05;21.60;99.90
26182;DHT22;13927;51.534;11.866;2023-09-19T15:18:39;21.60;99.90
26182;DHT22;13927;51.534;11.866;2023-09-19T15:21:08;21.50;99.90
26182;DHT22;13927;51.534;11.866;2023-09-19T15:23:37;21.50;99.90
26182;DHT22;13927;51.534;11.866;2023-09-19T15:26:05;21.60;99.90
26182;DHT22;13927;51.534;11.866;2023-09-19T15:28:33;21.60;99.90
26182;DHT22;13927;51.534;11.866;2023-09-19T15:31:07;21.60;99.90
26182;DHT22;13927;51.534;11.866;2023-09-19T15:33:35;21.50;99.90
26182;DHT22;13927;51.534;11.866;2023-09-19T15:36:12;21.50;99.90
26182;DHT22;13927;51.534;11.866;2023-09-19T15:38:59;21.40;99.90
26182;DHT22;13927;51.534;11.866;2023-09-19T15:41:27;21.40;99.90
26182;DHT22;13927;51.534;11.866;2023-09-19T15:43:55;21.30;99.90
26182;DHT22;13927;51.534;11.866;2023-09-19T15:46:22;21.20;99.90
26182;DHT22;13927;51.534;11.866;2023-09-19T15:48:48;21.20;99.90
26182;DHT22;13927;51.534;11.866;2023-09-19T15:51:14;21.10;99.90
26182;DHT22;13927;51.534;11.866;2023-09-19T15:53:50;21.10;99.90
26182;DHT22;13927;51.534;11.866;2023-09-19T15:56:19;21.00;99.90
26182;DHT22;13927;51.534;11.866;2023-09-19T15:58:54;20.90;99.90
26182;DHT22;13927;51.534;11.866;2023-09-19T16:01:21;20.80;99.90
26182;DHT22;13927;51.534;11.866;2023-09-19T16:03:51;20.70;99.90
26182;DHT22;13927;51.534;11.866;2023-09-19T16:06:23;20.60;99.90
26182;DHT22;13927;51.534;11.866;2023-09-19T16:08:52;20.50;99.90
26182;DHT22;13927;51.534;11.866;2023-09-19T16:11:19;20.50;99.90
26182;DHT22;13927;51.534;11.866;2023-09-19T16:13:47;20.50;99.90
26182;DHT22;13927;51.534;11.866;2023-09-19T16:16:15;20.50;99.90